sensor_id;sensor_type;location;lat;lon;timestamp;P1;durP1;ratioP1;P2;durP2;ratioP2
1366;SDS011;16877;48.810;9.282;2023-01-15T00:01:50;1.80;;;0.77;;
1366;SDS011;16877;48.810;9.282;2023-01-15T00:04:23;2.10;;;0.80;;
1366;SDS011;16877;48.810;9.282;2023-01-15T00:07:05;2.10;;;0.90;;
1366;SDS011;16877;48.810;9.282;2023-01-15T00:09:33;1.70;;;0.80;;
1366;SDS011;16877;48.810;9.282;2023-01-15T00:12:00;1.67;;;0.60;;
1366;SDS011;16877;48.810;9.282;2023-01-15T00:14:28;1.83;;;0.73;;
1366;SDS011;16877;48.810;9.282;2023-01-15T00:16:56;1.60;;;0.60;;
1366;SDS011;16877;48.810;9.282;2023-01-15T00:19:26;1.73;;;0.70;;
1366;SDS011;16877;48.810;9.282;2023-01-15T00:21:53;1.60;;;0.50;;
1366;SDS011;16877;48.810;9.282;2023-01-15T00:24:22;1.70;;;0.60;;
1366;SDS011;16877;48.810;9.282;2023-01-15T00:27:07;1.83;;;0.57;;
1366;SDS011;16877;48.810;9.282;2023-01-15T00:29:53;1.70;;;0.73;;
1366;SDS011;16877;48.810;9.282;2023-01-15T00:32:21;1.70;;;0.80;;
1366;SDS011;16877;48.810;9.282;2023-01-15T00:34:55;1.80;;;0.60;;
1366;SDS011;16877;48.810;9.282;2023-01-15T00:37:24;2.97;;;0.80;;
1366;SDS011;16877;48.810;9.282;2023-01-15T00:39:51;1.60;;;0.60;;
1366;SDS011;16877;48.810;9.282;2023-01-15T00:42:19;1.50;;;0.50;;
1366;SDS011;16877;48.810;9.282;2023-01-15T00:44:46;1.97;;;0.70;;
1366;SDS011;16877;48.810;9.282;2023-01-15T00:47:15;1.60;;;0.50;;
1366;SDS011;16877;48.810;9.282;2023-01-15T00:49:42;1.60;;;0.70;;
1366;SDS011;16877;48.810;9.282;2023-01-15T00:52:12;2.27;;;0.70;;
1366;SDS011;16877;48.810;9.282;2023-01-15T00:54:54;1.90;;;0.70;;
1366;SDS011;16877;48.810;9.282;2023-01-15T00:57:22;2.00;;;0.80;;
1366;SDS011;16877;48.810;9.282;2023-01-15T00:59:50;1.60;;;0.53;;
1366;SDS011;16877;48.810;9.282;2023-01-15T01:02:18;1.73;;;0.70;;
1366;SDS011;16877;48.810;9.282;2023-01-15T01:04:46;1.90;;;0.60;;
1366;SDS011;16877;48.810;9.282;2023-01-15T01:07:15;3.60;;;0.80;;
1366;SDS011;16877;48.810;9.282;2023-01-15T01:09:57;2.63;;;0.63;;
1366;SDS011;16877;48.810;9.282;2023-01-15T01:12:26;2.73;;;0.60;;
1366;SDS011;16877;48.810;9.282;2023-01-15T01:14:54;1.70;;;0.77;;
1366;SDS011;16877;48.810;9.282;2023-01-15T01:17:21;1.40;;;0.43;;
1366;SDS011;16877;48.810;9.282;2023-01-15T01:20:04;1.50;;;0.53;;
1366;SDS011;16877;48.810;9.282;2023-01-15T01:22:33;2.17;;;0.60;;
1366;SDS011;16877;48.810;9.282;2023-01-15T01:25:01;2.30;;;0.70;;
1366;SDS011;16877;48.810;9.282;2023-01-15T01:27:28;1.50;;;0.50;;
1366;SDS011;16877;48.810;9.282;2023-01-15T01:29:56;1.67;;;0.70;;
1366;SDS011;16877;48.810;9.282;2023-01-15T01:32:23;1.80;;;0.50;;
1366;SDS011;16877;48.810;9.282;2023-01-15T01:34:50;1.70;;;0.63;;
1366;SDS011;16877;48.810;9.282;2023-01-15T01:37:18;1.97;;;0.73;;
1366;SDS011;16877;48.810;9.282;2023-01-15T01:39:47;1.60;;;0.40;;
1366;SDS011;16877;48.810;9.282;2023-01-15T01:42:15;2.47;;;0.60;;
1366;SDS011;16877;48.810;9.282;2023-01-15T01:44:59;1.40;;;0.40;;
1366;SDS011;16877;48.810;9.282;2023-01-15T01:47:32;1.77;;;0.70;;
1366;SDS011;16877;48.810;9.282;2023-01-15T01:50:02;1.70;;;0.50;;
1366;SDS011;16877;48.810;9.282;2023-01-15T01:52:34;1.50;;;0.63;;
1366;SDS011;16877;48.810;9.282;2023-01-15T01:55:22;1.50;;;0.47;;
1366;SDS011;16877;48.810;9.282;2023-01-15T01:57:57;1.50;;;0.50;;
1366;SDS011;16877;48.810;9.282;2023-01-15T02:00:26;2.23;;;0.60;;
1366;SDS011;16877;48.810;9.282;2023-01-15T02:02:55;1.60;;;0.63;;
1366;SDS011;16877;48.810;9.282;2023-01-15T02:05:26;1.60;;;0.50;;
1366;SDS011;16877;48.810;9.282;2023-01-15T02:07:56;1.60;;;0.60;;
1366;SDS011;16877;48.810;9.282;2023-01-15T02:10:25;1.60;;;0.63;;
1366;SDS011;16877;48.810;9.282;2023-01-15T02:12:54;2.13;;;0.80;;
1366;SDS011;16877;48.810;9.282;2023-01-15T02:15:27;1.60;;;0.57;;
1366;SDS011;16877;48.810;9.282;2023-01-15T02:18:05;1.70;;;0.60;;
1366;SDS011;16877;48.810;9.282;2023-01-15T02:20:38;1.50;;;0.57;;
1366;SDS011;16877;48.810;9.282;2023-01-15T02:23:22;1.70;;;0.50;;
1366;SDS011;16877;48.810;9.282;2023-01-15T02:28:56;1.50;;;0.53;;
1366;SDS011;16877;48.810;9.282;2023-01-15T02:31:41;1.50;;;0.50;;
1366;SDS011;16877;48.810;9.282;2023-01-15T02:34:12;1.40;;;0.50;;
1366;SDS011;16877;48.810;9.282;2023-01-15T02:36:44;1.57;;;0.53;;
1366;SDS011;16877;48.810;9.282;2023-01-15T02:39:15;1.60;;;0.50;;
1366;SDS011;16877;48.810;9.282;2023-01-15T02:41:45;2.07;;;0.70;;
1366;SDS011;16877;48.810;9.282;2023-01-15T02:44:18;1.70;;;0.50;;
1366;SDS011;16877;48.810;9.282;2023-01-15T02:46:48;1.40;;;0.40;;
1366;SDS011;16877;48.810;9.282;2023-01-15T02:49:19;1.70;;;0.80;;
1366;SDS011;16877;48.810;9.282;2023-01-15T02:51:53;1.90;;;0.43;;
1366;SDS011;16877;48.810;9.282;2023-01-15T02:54:25;1.70;;;0.80;;
1366;SDS011;16877;48.810;9.282;2023-01-15T02:56:55;1.70;;;0.60;;
1366;SDS011;16877;48.810;9.282;2023-01-15T02:59:29;1.47;;;0.43;;
1366;SDS011;16877;48.810;9.282;2023-01-15T03:02:02;1.40;;;0.50;;
1366;SDS011;16877;48.810;9.282;2023-01-15T03:04:38;1.70;;;0.80;;
1366;SDS011;16877;48.810;9.282;2023-01-15T03:07:10;2.03;;;0.80;;
1366;SDS011;16877;48.810;9.282;2023-01-15T03:09:42;1.70;;;0.50;;
1366;SDS011;16877;48.810;9.282;2023-01-15T03:12:11;1.70;;;0.50;;
1366;SDS011;16877;48.810;9.282;2023-01-15T03:14:49;1.50;;;0.50;;
1366;SDS011;16877;48.810;9.282;2023-01-15T03:17:21;1.40;;;0.50;;
1366;SDS011;16877;48.810;9.282;2023-01-15T03:19:55;1.40;;;0.50;;
1366;SDS011;16877;48.810;9.282;2023-01-15T03:22:25;1.60;;;0.53;;
1366;SDS011;16877;48.810;9.282;2023-01-15T03:24:58;1.40;;;0.47;;
1366;SDS011;16877;48.810;9.282;2023-01-15T03:27:29;1.97;;;0.60;;
1366;SDS011;16877;48.810;9.282;2023-01-15T03:29:59;1.90;;;0.50;;
1366;SDS011;16877;48.810;9.282;2023-01-15T03:32:32;1.50;;;0.53;;
1366;SDS011;16877;48.810;9.282;2023-01-15T03:35:01;1.70;;;0.50;;
1366;SDS011;16877;48.810;9.282;2023-01-15T03:37:32;1.60;;;0.57;;
1366;SDS011;16877;48.810;9.282;2023-01-15T03:39:59;1.60;;;0.60;;
1366;SDS011;16877;48.810;9.282;2023-01-15T03:42:30;5.20;;;0.60;;
1366;SDS011;16877;48.810;9.282;2023-01-15T03:45:09;1.50;;;0.50;;
1366;SDS011;16877;48.810;9.282;2023-01-15T03:47:53;1.40;;;0.40;;
1366;SDS011;16877;48.810;9.282;2023-01-15T03:50:26;3.00;;;0.57;;
1366;SDS011;16877;48.810;9.282;2023-01-15T03:53:01;2.23;;;0.43;;
1366;SDS011;16877;48.810;9.282;2023-01-15T03:55:47;1.40;;;0.50;;
1366;SDS011;16877;48.810;9.282;2023-01-15T03:58:20;1.93;;;0.40;;
1366;SDS011;16877;48.810;9.282;2023-01-15T04:00:55;1.67;;;0.40;;
1366;SDS011;16877;48.810;9.282;2023-01-15T04:03:24;2.00;;;0.60;;
1366;SDS011;16877;48.810;9.282;2023-01-15T04:05:55;1.87;;;0.50;;
1366;SDS011;16877;48.810;9.282;2023-01-15T04:08:25;1.63;;;0.50;;
1366;SDS011;16877;48.810;9.282;2023-01-15T04:10:54;2.10;;;0.50;;
1366;SDS011;16877;48.810;9.282;2023-01-15T04:13:23;1.97;;;0.40;;
1366;SDS011;16877;48.810;9.282;2023-01-15T04:15:51;1.50;;;0.43;;
1366;SDS011;16877;48.810;9.282;2023-01-15T04:18:21;1.43;;;0.40;;
1366;SDS011;16877;48.810;9.282;2023-01-15T04:20:48;1.67;;;0.50;;
1366;SDS011;16877;48.810;9.282;2023-01-15T04:23:16;1.70;;;0.60;;
1366;SDS011;16877;48.810;9.282;2023-01-15T04:25:43;1.60;;;0.40;;
1366;SDS011;16877;48.810;9.282;2023-01-15T04:28:26;1.60;;;0.40;;
1366;SDS011;16877;48.810;9.282;2023-01-15T04:30:57;1.30;;;0.40;;
1366;SDS011;16877;48.810;9.282;2023-01-15T04:33:24;1.30;;;0.30;;
1366;SDS011;16877;48.810;9.282;2023-01-15T04:35:52;1.40;;;0.50;;
1366;SDS011;16877;48.810;9.282;2023-01-15T04:38:20;1.40;;;0.40;;
1366;SDS011;16877;48.810;9.282;2023-01-15T04:40:47;1.70;;;0.40;;
1366;SDS011;16877;48.810;9.282;2023-01-15T04:43:38;1.40;;;0.40;;
1366;SDS011;16877;48.810;9.282;2023-01-15T04:46:24;1.50;;;0.50;;
1366;SDS011;16877;48.810;9.282;2023-01-15T04:48:51;1.50;;;0.47;;
1366;SDS011;16877;48.810;9.282;2023-01-15T04:51:19;1.43;;;0.40;;
1366;SDS011;16877;48.810;9.282;2023-01-15T04:53:46;2.57;;;0.50;;
1366;SDS011;16877;48.810;9.282;2023-01-15T04:56:18;2.03;;;0.40;;
1366;SDS011;16877;48.810;9.282;2023-01-15T04:58:45;1.70;;;0.40;;
1366;SDS011;16877;48.810;9.282;2023-01-15T05:01:13;1.53;;;0.50;;
1366;SDS011;16877;48.810;9.282;2023-01-15T05:03:43;1.40;;;0.40;;
1366;SDS011;16877;48.810;9.282;2023-01-15T05:06:12;1.50;;;0.47;;
1366;SDS011;16877;48.810;9.282;2023-01-15T05:08:39;1.93;;;0.50;;
1366;SDS011;16877;48.810;9.282;2023-01-15T05:11:07;1.83;;;0.63;;
1366;SDS011;16877;48.810;9.282;2023-01-15T05:13:35;1.40;;;0.40;;
1366;SDS011;16877;48.810;9.282;2023-01-15T05:16:13;1.80;;;0.50;;
1366;SDS011;16877;48.810;9.282;2023-01-15T05:18:43;2.33;;;0.50;;
1366;SDS011;16877;48.810;9.282;2023-01-15T05:21:12;1.83;;;0.50;;
1366;SDS011;16877;48.810;9.282;2023-01-15T05:23:41;1.50;;;0.50;;
1366;SDS011;16877;48.810;9.282;2023-01-15T05:26:08;1.40;;;0.33;;
1366;SDS011;16877;48.810;9.282;2023-01-15T05:28:37;1.50;;;0.50;;
1366;SDS011;16877;48.810;9.282;2023-01-15T05:31:05;1.50;;;0.40;;
1366;SDS011;16877;48.810;9.282;2023-01-15T05:33:33;1.30;;;0.30;;
1366;SDS011;16877;48.810;9.282;2023-01-15T05:36:03;2.40;;;0.60;;
1366;SDS011;16877;48.810;9.282;2023-01-15T05:38:32;2.80;;;0.60;;
1366;SDS011;16877;48.810;9.282;2023-01-15T05:41:02;1.60;;;0.50;;
1366;SDS011;16877;48.810;9.282;2023-01-15T05:43:50;1.80;;;0.70;;
1366;SDS011;16877;48.810;9.282;2023-01-15T05:46:17;1.67;;;0.60;;
1366;SDS011;16877;48.810;9.282;2023-01-15T05:48:59;1.70;;;0.80;;
1366;SDS011;16877;48.810;9.282;2023-01-15T05:51:30;2.30;;;0.80;;
1366;SDS011;16877;48.810;9.282;2023-01-15T05:53:57;1.60;;;0.70;;
1366;SDS011;16877;48.810;9.282;2023-01-15T05:56:25;1.53;;;0.70;;
1366;SDS011;16877;48.810;9.282;2023-01-15T05:58:53;1.77;;;0.80;;
1366;SDS011;16877;48.810;9.282;2023-01-15T06:01:20;2.10;;;0.63;;
1366;SDS011;16877;48.810;9.282;2023-01-15T06:03:47;1.80;;;0.70;;
1366;SDS011;16877;48.810;9.282;2023-01-15T06:06:16;1.77;;;0.60;;
1366;SDS011;16877;48.810;9.282;2023-01-15T06:08:46;1.60;;;0.60;;
1366;SDS011;16877;48.810;9.282;2023-01-15T06:11:13;1.70;;;0.70;;
1366;SDS011;16877;48.810;9.282;2023-01-15T06:13:40;1.80;;;0.77;;
1366;SDS011;16877;48.810;9.282;2023-01-15T06:16:08;1.73;;;0.80;;
1366;SDS011;16877;48.810;9.282;2023-01-15T06:18:36;1.93;;;1.00;;
1366;SDS011;16877;48.810;9.282;2023-01-15T06:21:03;1.50;;;0.60;;
1366;SDS011;16877;48.810;9.282;2023-01-15T06:23:32;1.50;;;0.70;;
1366;SDS011;16877;48.810;9.282;2023-01-15T06:26:03;1.70;;;0.80;;
1366;SDS011;16877;48.810;9.282;2023-01-15T06:28:32;1.60;;;0.63;;
1366;SDS011;16877;48.810;9.282;2023-01-15T06:31:02;1.70;;;0.70;;
1366;SDS011;16877;48.810;9.282;2023-01-15T06:33:30;1.70;;;0.60;;
1366;SDS011;16877;48.810;9.282;2023-01-15T06:36:01;1.50;;;0.60;;
1366;SDS011;16877;48.810;9.282;2023-01-15T06:38:29;1.77;;;0.67;;
1366;SDS011;16877;48.810;9.282;2023-01-15T06:40:57;1.40;;;0.47;;
1366;SDS011;16877;48.810;9.282;2023-01-15T06:43:26;2.10;;;0.70;;
1366;SDS011;16877;48.810;9.282;2023-01-15T06:46:11;1.50;;;0.53;;
1366;SDS011;16877;48.810;9.282;2023-01-15T06:48:59;1.63;;;0.50;;
1366;SDS011;16877;48.810;9.282;2023-01-15T06:51:27;1.40;;;0.40;;
1366;SDS011;16877;48.810;9.282;2023-01-15T06:53:55;1.40;;;0.40;;
1366;SDS011;16877;48.810;9.282;2023-01-15T06:56:22;1.50;;;0.53;;
1366;SDS011;16877;48.810;9.282;2023-01-15T06:58:56;1.40;;;0.40;;
1366;SDS011;16877;48.810;9.282;2023-01-15T07:01:24;1.40;;;0.50;;
1366;SDS011;16877;48.810;9.282;2023-01-15T07:03:54;1.47;;;0.50;;
1366;SDS011;16877;48.810;9.282;2023-01-15T07:06:22;1.70;;;0.50;;
1366;SDS011;16877;48.810;9.282;2023-01-15T07:08:49;1.30;;;0.30;;
1366;SDS011;16877;48.810;9.282;2023-01-15T07:11:18;1.50;;;0.40;;
1366;SDS011;16877;48.810;9.282;2023-01-15T07:13:45;1.80;;;0.40;;
1366;SDS011;16877;48.810;9.282;2023-01-15T07:16:14;1.30;;;0.30;;
1366;SDS011;16877;48.810;9.282;2023-01-15T07:18:53;1.40;;;0.40;;
1366;SDS011;16877;48.810;9.282;2023-01-15T07:21:25;1.30;;;0.30;;
1366;SDS011;16877;48.810;9.282;2023-01-15T07:23:52;1.40;;;0.40;;
1366;SDS011;16877;48.810;9.282;2023-01-15T07:26:20;1.60;;;0.40;;
1366;SDS011;16877;48.810;9.282;2023-01-15T07:28:52;1.50;;;0.53;;
1366;SDS011;16877;48.810;9.282;2023-01-15T07:31:21;2.67;;;0.73;;
1366;SDS011;16877;48.810;9.282;2023-01-15T07:33:51;1.50;;;0.67;;
1366;SDS011;16877;48.810;9.282;2023-01-15T07:36:18;1.43;;;0.40;;
1366;SDS011;16877;48.810;9.282;2023-01-15T07:38:50;1.40;;;0.40;;
1366;SDS011;16877;48.810;9.282;2023-01-15T07:41:18;1.30;;;0.40;;
1366;SDS011;16877;48.810;9.282;2023-01-15T07:44:03;1.47;;;0.50;;
1366;SDS011;16877;48.810;9.282;2023-01-15T07:46:49;1.40;;;0.40;;
1366;SDS011;16877;48.810;9.282;2023-01-15T07:49:34;1.50;;;0.40;;
1366;SDS011;16877;48.810;9.282;2023-01-15T07:52:11;2.73;;;0.40;;
1366;SDS011;16877;48.810;9.282;2023-01-15T07:54:38;1.53;;;0.40;;
1366;SDS011;16877;48.810;9.282;2023-01-15T07:57:10;1.87;;;0.50;;
1366;SDS011;16877;48.810;9.282;2023-01-15T07:59:39;1.63;;;0.70;;
1366;SDS011;16877;48.810;9.282;2023-01-15T08:02:08;1.60;;;0.60;;
1366;SDS011;16877;48.810;9.282;2023-01-15T08:04:40;1.60;;;0.50;;
1366;SDS011;16877;48.810;9.282;2023-01-15T08:07:08;1.40;;;0.50;;
1366;SDS011;16877;48.810;9.282;2023-01-15T08:09:37;1.33;;;0.50;;
1366;SDS011;16877;48.810;9.282;2023-01-15T08:12:05;1.90;;;0.80;;
1366;SDS011;16877;48.810;9.282;2023-01-15T08:14:50;1.67;;;0.60;;
1366;SDS011;16877;48.810;9.282;2023-01-15T08:17:37;1.47;;;0.50;;
1366;SDS011;16877;48.810;9.282;2023-01-15T08:20:22;1.50;;;0.60;;
1366;SDS011;16877;48.810;9.282;2023-01-15T08:22:52;1.40;;;0.50;;
1366;SDS011;16877;48.810;9.282;2023-01-15T08:25:35;1.67;;;0.50;;
1366;SDS011;16877;48.810;9.282;2023-01-15T08:28:02;1.53;;;0.50;;
1366;SDS011;16877;48.810;9.282;2023-01-15T08:30:31;1.60;;;0.60;;
1366;SDS011;16877;48.810;9.282;2023-01-15T08:33:02;1.50;;;0.60;;
1366;SDS011;16877;48.810;9.282;2023-01-15T08:35:30;1.50;;;0.67;;
1366;SDS011;16877;48.810;9.282;2023-01-15T08:37:58;1.50;;;0.50;;
1366;SDS011;16877;48.810;9.282;2023-01-15T08:40:32;1.30;;;0.40;;
1366;SDS011;16877;48.810;9.282;2023-01-15T08:43:00;1.90;;;0.93;;
1366;SDS011;16877;48.810;9.282;2023-01-15T08:45:29;1.60;;;0.63;;
1366;SDS011;16877;48.810;9.282;2023-01-15T08:47:56;1.60;;;0.60;;
1366;SDS011;16877;48.810;9.282;2023-01-15T08:50:36;1.50;;;0.50;;
1366;SDS011;16877;48.810;9.282;2023-01-15T08:53:05;1.40;;;0.47;;
1366;SDS011;16877;48.810;9.282;2023-01-15T08:55:34;1.80;;;0.60;;
1366;SDS011;16877;48.810;9.282;2023-01-15T08:58:03;1.63;;;0.70;;
1366;SDS011;16877;48.810;9.282;2023-01-15T09:00:31;1.70;;;0.60;;
1366;SDS011;16877;48.810;9.282;2023-01-15T09:02:59;2.10;;;0.90;;
1366;SDS011;16877;48.810;9.282;2023-01-15T09:05:27;1.40;;;0.53;;
1366;SDS011;16877;48.810;9.282;2023-01-15T09:07:56;1.90;;;0.70;;
1366;SDS011;16877;48.810;9.282;2023-01-15T09:10:24;1.93;;;0.70;;
1366;SDS011;16877;48.810;9.282;2023-01-15T09:12:57;2.20;;;1.27;;
1366;SDS011;16877;48.810;9.282;2023-01-15T09:15:24;2.00;;;1.10;;
1366;SDS011;16877;48.810;9.282;2023-01-15T09:17:54;1.93;;;1.00;;
1366;SDS011;16877;48.810;9.282;2023-01-15T09:20:26;2.00;;;1.13;;
1366;SDS011;16877;48.810;9.282;2023-01-15T09:23:11;1.53;;;0.67;;
1366;SDS011;16877;48.810;9.282;2023-01-15T09:25:43;1.87;;;0.80;;
1366;SDS011;16877;48.810;9.282;2023-01-15T09:28:17;1.70;;;0.70;;
1366;SDS011;16877;48.810;9.282;2023-01-15T09:30:44;1.50;;;0.60;;
1366;SDS011;16877;48.810;9.282;2023-01-15T09:33:13;2.23;;;0.60;;
1366;SDS011;16877;48.810;9.282;2023-01-15T09:35:43;2.57;;;0.93;;
1366;SDS011;16877;48.810;9.282;2023-01-15T09:38:12;2.53;;;1.33;;
1366;SDS011;16877;48.810;9.282;2023-01-15T09:40:43;2.00;;;1.00;;
1366;SDS011;16877;48.810;9.282;2023-01-15T09:43:21;1.97;;;0.90;;
1366;SDS011;16877;48.810;9.282;2023-01-15T09:46:00;1.90;;;0.87;;
1366;SDS011;16877;48.810;9.282;2023-01-15T09:48:44;1.73;;;0.77;;
1366;SDS011;16877;48.810;9.282;2023-01-15T09:51:35;2.33;;;0.93;;
1366;SDS011;16877;48.810;9.282;2023-01-15T09:57:09;3.20;;;0.90;;
1366;SDS011;16877;48.810;9.282;2023-01-15T09:59:43;2.00;;;0.83;;
1366;SDS011;16877;48.810;9.282;2023-01-15T10:02:20;1.70;;;0.90;;
1366;SDS011;16877;48.810;9.282;2023-01-15T10:04:51;2.13;;;0.77;;
1366;SDS011;16877;48.810;9.282;2023-01-15T10:07:41;1.83;;;0.80;;
1366;SDS011;16877;48.810;9.282;2023-01-15T10:10:31;1.60;;;0.70;;
1366;SDS011;16877;48.810;9.282;2023-01-15T10:13:12;2.03;;;0.90;;
1366;SDS011;16877;48.810;9.282;2023-01-15T10:15:46;1.60;;;0.60;;
1366;SDS011;16877;48.810;9.282;2023-01-15T10:18:14;1.50;;;0.70;;
1366;SDS011;16877;48.810;9.282;2023-01-15T10:20:48;1.97;;;0.90;;
1366;SDS011;16877;48.810;9.282;2023-01-15T10:23:33;2.47;;;1.00;;
1366;SDS011;16877;48.810;9.282;2023-01-15T10:26:10;1.60;;;0.53;;
1366;SDS011;16877;48.810;9.282;2023-01-15T10:28:48;1.80;;;0.70;;
1366;SDS011;16877;48.810;9.282;2023-01-15T10:31:37;1.60;;;0.60;;
1366;SDS011;16877;48.810;9.282;2023-01-15T10:34:28;1.50;;;0.50;;
1366;SDS011;16877;48.810;9.282;2023-01-15T10:37:33;1.53;;;0.57;;
1366;SDS011;16877;48.810;9.282;2023-01-15T10:40:17;1.40;;;0.60;;
1366;SDS011;16877;48.810;9.282;2023-01-15T10:43:00;1.90;;;0.70;;
1366;SDS011;16877;48.810;9.282;2023-01-15T10:45:33;1.60;;;0.60;;
1366;SDS011;16877;48.810;9.282;2023-01-15T10:48:09;1.60;;;0.70;;
1366;SDS011;16877;48.810;9.282;2023-01-15T10:50:55;1.40;;;0.40;;
1366;SDS011;16877;48.810;9.282;2023-01-15T10:53:28;1.30;;;0.40;;
1366;SDS011;16877;48.810;9.282;2023-01-15T10:56:00;1.37;;;0.40;;
1366;SDS011;16877;48.810;9.282;2023-01-15T10:58:51;1.53;;;0.50;;
1366;SDS011;16877;48.810;9.282;2023-01-15T11:01:24;1.73;;;0.63;;
1366;SDS011;16877;48.810;9.282;2023-01-15T11:03:54;1.67;;;0.70;;
1366;SDS011;16877;48.810;9.282;2023-01-15T11:06:35;1.60;;;0.63;;
1366;SDS011;16877;48.810;9.282;2023-01-15T11:09:04;1.40;;;0.50;;
1366;SDS011;16877;48.810;9.282;2023-01-15T11:11:33;1.70;;;0.60;;
1366;SDS011;16877;48.810;9.282;2023-01-15T11:14:32;2.00;;;0.90;;
1366;SDS011;16877;48.810;9.282;2023-01-15T11:17:18;1.70;;;0.70;;
1366;SDS011;16877;48.810;9.282;2023-01-15T11:20:09;2.67;;;0.80;;
1366;SDS011;16877;48.810;9.282;2023-01-15T11:22:44;1.53;;;0.60;;
1366;SDS011;16877;48.810;9.282;2023-01-15T11:25:27;2.80;;;0.70;;
1366;SDS011;16877;48.810;9.282;2023-01-15T11:27:56;1.77;;;0.60;;
1366;SDS011;16877;48.810;9.282;2023-01-15T11:30:29;1.83;;;0.70;;
1366;SDS011;16877;48.810;9.282;2023-01-15T11:33:20;1.80;;;0.70;;
1366;SDS011;16877;48.810;9.282;2023-01-15T11:35:52;1.50;;;0.50;;
1366;SDS011;16877;48.810;9.282;2023-01-15T11:38:25;1.60;;;0.70;;
1366;SDS011;16877;48.810;9.282;2023-01-15T11:40:55;1.53;;;0.60;;
1366;SDS011;16877;48.810;9.282;2023-01-15T11:43:24;1.63;;;0.80;;
1366;SDS011;16877;48.810;9.282;2023-01-15T11:46:25;1.77;;;0.80;;
1366;SDS011;16877;48.810;9.282;2023-01-15T11:49:13;1.90;;;0.83;;
1366;SDS011;16877;48.810;9.282;2023-01-15T11:52:00;1.70;;;0.60;;
1366;SDS011;16877;48.810;9.282;2023-01-15T11:54:28;1.50;;;0.60;;
1366;SDS011;16877;48.810;9.282;2023-01-15T11:57:03;2.13;;;0.93;;
1366;SDS011;16877;48.810;9.282;2023-01-15T11:59:31;1.93;;;0.90;;
1366;SDS011;16877;48.810;9.282;2023-01-15T12:02:03;1.80;;;0.90;;
1366;SDS011;16877;48.810;9.282;2023-01-15T12:04:44;3.73;;;1.03;;
1366;SDS011;16877;48.810;9.282;2023-01-15T12:07:18;1.80;;;0.80;;
1366;SDS011;16877;48.810;9.282;2023-01-15T12:10:01;1.90;;;0.83;;
1366;SDS011;16877;48.810;9.282;2023-01-15T12:12:43;2.43;;;1.23;;
1366;SDS011;16877;48.810;9.282;2023-01-15T12:15:41;1.80;;;0.80;;
1366;SDS011;16877;48.810;9.282;2023-01-15T12:21:40;2.30;;;0.90;;
1366;SDS011;16877;48.810;9.282;2023-01-15T12:24:34;1.93;;;0.87;;
1366;SDS011;16877;48.810;9.282;2023-01-15T12:30:26;2.10;;;1.10;;
1366;SDS011;16877;48.810;9.282;2023-01-15T12:33:05;2.50;;;0.90;;
1366;SDS011;16877;48.810;9.282;2023-01-15T12:35:46;2.00;;;0.80;;
1366;SDS011;16877;48.810;9.282;2023-01-15T12:38:25;1.93;;;1.10;;
1366;SDS011;16877;48.810;9.282;2023-01-15T12:41:09;2.57;;;1.00;;
1366;SDS011;16877;48.810;9.282;2023-01-15T12:43:40;2.10;;;0.90;;
1366;SDS011;16877;48.810;9.282;2023-01-15T12:46:29;1.93;;;0.93;;
1366;SDS011;16877;48.810;9.282;2023-01-15T12:49:00;2.47;;;1.00;;
1366;SDS011;16877;48.810;9.282;2023-01-15T12:51:33;1.60;;;0.60;;
1366;SDS011;16877;48.810;9.282;2023-01-15T12:54:22;1.50;;;0.50;;
1366;SDS011;16877;48.810;9.282;2023-01-15T12:56:57;2.20;;;0.70;;
1366;SDS011;16877;48.810;9.282;2023-01-15T12:59:30;2.10;;;0.60;;
1366;SDS011;16877;48.810;9.282;2023-01-15T13:02:08;2.23;;;1.07;;
1366;SDS011;16877;48.810;9.282;2023-01-15T13:04:47;5.60;;;1.20;;
1366;SDS011;16877;48.810;9.282;2023-01-15T13:07:22;5.40;;;1.43;;
1366;SDS011;16877;48.810;9.282;2023-01-15T13:09:59;2.20;;;0.93;;
1366;SDS011;16877;48.810;9.282;2023-01-15T13:12:32;2.47;;;0.97;;
1366;SDS011;16877;48.810;9.282;2023-01-15T13:15:15;2.20;;;1.00;;
1366;SDS011;16877;48.810;9.282;2023-01-15T13:17:51;2.80;;;1.07;;
1366;SDS011;16877;48.810;9.282;2023-01-15T13:20:30;1.87;;;0.80;;
1366;SDS011;16877;48.810;9.282;2023-01-15T13:23:08;2.10;;;0.90;;
1366;SDS011;16877;48.810;9.282;2023-01-15T13:26:03;2.00;;;1.00;;
1366;SDS011;16877;48.810;9.282;2023-01-15T13:28:43;3.30;;;1.10;;
1366;SDS011;16877;48.810;9.282;2023-01-15T13:31:35;2.07;;;0.97;;
1366;SDS011;16877;48.810;9.282;2023-01-15T13:34:12;2.00;;;1.03;;
1366;SDS011;16877;48.810;9.282;2023-01-15T13:36:44;2.33;;;1.20;;
1366;SDS011;16877;48.810;9.282;2023-01-15T13:39:35;2.70;;;1.40;;
1366;SDS011;16877;48.810;9.282;2023-01-15T13:42:10;2.60;;;1.40;;
1366;SDS011;16877;48.810;9.282;2023-01-15T13:45:07;2.40;;;1.47;;
1366;SDS011;16877;48.810;9.282;2023-01-15T13:48:01;2.30;;;1.37;;
1366;SDS011;16877;48.810;9.282;2023-01-15T13:50:50;2.40;;;1.23;;
1366;SDS011;16877;48.810;9.282;2023-01-15T13:53:24;2.60;;;1.30;;
1366;SDS011;16877;48.810;9.282;2023-01-15T13:55:55;3.17;;;1.40;;
1366;SDS011;16877;48.810;9.282;2023-01-15T13:58:34;4.17;;;1.50;;
1366;SDS011;16877;48.810;9.282;2023-01-15T14:01:23;2.70;;;1.70;;
1366;SDS011;16877;48.810;9.282;2023-01-15T14:04:01;3.57;;;1.60;;
1366;SDS011;16877;48.810;9.282;2023-01-15T14:06:38;2.23;;;1.30;;
1366;SDS011;16877;48.810;9.282;2023-01-15T14:09:11;2.40;;;1.20;;
1366;SDS011;16877;48.810;9.282;2023-01-15T14:11:42;2.67;;;1.27;;
1366;SDS011;16877;48.810;9.282;2023-01-15T14:17:24;2.57;;;1.27;;
1366;SDS011;16877;48.810;9.282;2023-01-15T14:20:16;2.40;;;0.97;;
1366;SDS011;16877;48.810;9.282;2023-01-15T14:23:21;2.00;;;1.10;;
1366;SDS011;16877;48.810;9.282;2023-01-15T14:26:01;2.33;;;1.00;;
1366;SDS011;16877;48.810;9.282;2023-01-15T14:28:52;2.97;;;0.90;;
1366;SDS011;16877;48.810;9.282;2023-01-15T14:32:01;3.17;;;1.50;;
1366;SDS011;16877;48.810;9.282;2023-01-15T14:34:53;2.30;;;1.20;;
1366;SDS011;16877;48.810;9.282;2023-01-15T14:37:43;3.83;;;1.60;;
1366;SDS011;16877;48.810;9.282;2023-01-15T14:40:34;2.63;;;1.10;;
1366;SDS011;16877;48.810;9.282;2023-01-15T14:43:07;2.53;;;1.03;;
1366;SDS011;16877;48.810;9.282;2023-01-15T14:45:40;2.50;;;1.20;;
1366;SDS011;16877;48.810;9.282;2023-01-15T14:48:34;3.23;;;1.40;;
1366;SDS011;16877;48.810;9.282;2023-01-15T14:51:07;2.97;;;0.93;;
1366;SDS011;16877;48.810;9.282;2023-01-15T14:53:38;2.33;;;1.17;;
1366;SDS011;16877;48.810;9.282;2023-01-15T14:56:15;3.33;;;1.03;;
1366;SDS011;16877;48.810;9.282;2023-01-15T14:58:49;2.77;;;1.30;;
1366;SDS011;16877;48.810;9.282;2023-01-15T15:01:28;2.17;;;1.00;;
1366;SDS011;16877;48.810;9.282;2023-01-15T15:04:02;2.17;;;1.10;;
1366;SDS011;16877;48.810;9.282;2023-01-15T15:06:46;2.60;;;1.17;;
1366;SDS011;16877;48.810;9.282;2023-01-15T15:09:20;2.47;;;1.17;;
1366;SDS011;16877;48.810;9.282;2023-01-15T15:12:19;2.50;;;1.10;;
1366;SDS011;16877;48.810;9.282;2023-01-15T15:15:20;3.30;;;1.50;;
1366;SDS011;16877;48.810;9.282;2023-01-15T15:17:56;2.47;;;1.43;;
1366;SDS011;16877;48.810;9.282;2023-01-15T15:20:32;4.03;;;1.50;;
1366;SDS011;16877;48.810;9.282;2023-01-15T15:23:12;2.50;;;1.27;;
1366;SDS011;16877;48.810;9.282;2023-01-15T15:25:46;2.50;;;1.30;;
1366;SDS011;16877;48.810;9.282;2023-01-15T15:28:17;3.57;;;1.50;;
1366;SDS011;16877;48.810;9.282;2023-01-15T15:30:49;3.60;;;1.60;;
1366;SDS011;16877;48.810;9.282;2023-01-15T15:33:19;3.77;;;1.43;;
1366;SDS011;16877;48.810;9.282;2023-01-15T15:35:51;2.43;;;1.20;;
1366;SDS011;16877;48.810;9.282;2023-01-15T15:38:20;2.70;;;1.30;;
1366;SDS011;16877;48.810;9.282;2023-01-15T15:40:50;3.10;;;1.20;;
1366;SDS011;16877;48.810;9.282;2023-01-15T15:43:20;2.13;;;1.00;;
1366;SDS011;16877;48.810;9.282;2023-01-15T15:46:17;2.30;;;1.40;;
1366;SDS011;16877;48.810;9.282;2023-01-15T15:49:06;2.70;;;1.43;;
1366;SDS011;16877;48.810;9.282;2023-01-15T15:51:35;2.30;;;1.30;;
1366;SDS011;16877;48.810;9.282;2023-01-15T15:54:12;2.90;;;1.10;;
1366;SDS011;16877;48.810;9.282;2023-01-15T15:56:45;2.73;;;1.50;;
1366;SDS011;16877;48.810;9.282;2023-01-15T15:59:18;3.80;;;1.60;;
1366;SDS011;16877;48.810;9.282;2023-01-15T16:01:56;2.87;;;1.30;;